Time;durP1;ratioP1;P1;durP2;ratioP2;P2;SDS_P1;SDS_P2;PMS_P1;PMS_P2;Temp;Humidity;BMP_temperature;BMP_pressure;BME280_temperature;BME280_humidity;BME280_pressure;Samples;Min_cycle;Max_cycle;Signal;HPM_P1;HPM_P2
2021/01/12 00:01:12;;;;;;;24.27;15.85;;;;;;;;;;10081132;28;20051;-62
2021/01/12 00:06:14;;;;;;;27.55;16.63;;;;;;;;;;10080731;28;20067;-64
2021/01/12 00:11:12;;;;;;;22.33;14.05;;;;;;;;;;10079279;28;20051;-64
2021/01/12 00:16:09;;;;;;;25.42;17.65;;;;;;;;;;10078655;28;20083;-63
2021/01/12 00:21:07;;;;;;;26.45;16.33;;;;;;;;;;10078915;28;20070;-63
2021/01/12 00:26:07;;;;;;;17.17;12.40;;;;;;;;;;10079810;28;20512;-63
2021/01/12 00:31:05;;;;;;;20.95;14.15;;;;;;;;;;10079752;28;20104;-62
2021/01/12 00:36:03;;;;;;;31.33;20.95;;;;;;;;;;10077774;28;20086;-63
2021/01/12 00:41:06;;;;;;;32.80;19.58;;;;;;;;;;10078872;28;20048;-63
2021/01/12 00:46:06;;;;;;;31.02;20.25;;;;;;;;;;10078589;28;20094;-63
2021/01/12 00:51:03;;;;;;;18.35;14.52;;;;;;;;;;10078149;28;20523;-63
2021/01/12 00:56:01;;;;;;;21.75;14.63;;;;;;;;;;10078040;28;20083;-63
2021/01/12 01:00:59;;;;;;;21.90;15.68;;;;;;;;;;10078639;28;20050;-63
2021/01/12 01:05:56;;;;;;;18.67;14.07;;;;;;;;;;10077592;28;20071;-63
2021/01/12 01:10:54;;;;;;;19.55;15.10;;;;;;;;;;10077888;28;20090;-63
2021/01/12 01:15:51;;;;;;;23.83;13.65;;;;;;;;;;10077443;28;20137;-64
2021/01/12 01:20:50;;;;;;;16.17;12.20;;;;;;;;;;10077830;28;20493;-64
2021/01/12 01:25:47;;;;;;;15.95;12.18;;;;;;;;;;10077719;28;20066;-62
2021/01/12 01:30:45;;;;;;;14.98;12.35;;;;;;;;;;10077066;28;20098;-62
2021/01/12 01:35:42;;;;;;;15.30;12.02;;;;;;;;;;10076920;28;20082;-62
2021/01/12 01:40:41;;;;;;;16.73;12.35;;;;;;;;;;10075499;28;20479;-62
2021/01/12 01:45:38;;;;;;;14.35;10.95;;;;;;;;;;10076750;28;20059;-61
2021/01/12 01:50:36;;;;;;;18.58;13.85;;;;;;;;;;10076287;28;20051;-62
2021/01/12 01:55:33;;;;;;;15.38;12.85;;;;;;;;;;10076943;28;20086;-62
2021/01/12 02:00:32;;;;;;;19.88;14.63;;;;;;;;;;10076971;28;20047;-63
2021/01/12 02:05:30;;;;;;;19.02;12.77;;;;;;;;;;10076843;28;20078;-62
2021/01/12 02:10:27;;;;;;;19.85;13.65;;;;;;;;;;10076207;28;20082;-62
2021/01/12 02:15:25;;;;;;;17.98;12.55;;;;;;;;;;10075797;28;20090;-62
2021/01/12 02:20:27;;;;;;;21.02;15.00;;;;;;;;;;10075738;28;20075;-62
2021/01/12 02:25:26;;;;;;;23.10;15.07;;;;;;;;;;10075644;28;20051;-62
2021/01/12 02:30:23;;;;;;;20.13;15.73;;;;;;;;;;10075714;28;20489;-62
2021/01/12 02:35:22;;;;;;;29.00;16.20;;;;;;;;;;10076271;28;20512;-62
2021/01/12 02:40:19;;;;;;;22.65;16.38;;;;;;;;;;10079806;28;20058;-63
2021/01/12 02:45:19;;;;;;;19.83;14.75;;;;;;;;;;10083534;28;20525;-63
2021/01/12 02:50:16;;;;;;;22.27;15.60;;;;;;;;;;10083308;28;20078;-61
2021/01/12 02:55:14;;;;;;;24.15;16.92;;;;;;;;;;10083313;28;20588;-63
2021/01/12 03:00:13;;;;;;;23.75;15.98;;;;;;;;;;10082504;28;20047;-62
2021/01/12 03:05:11;;;;;;;30.00;18.58;;;;;;;;;;10082735;28;20083;-63
2021/01/12 03:10:09;;;;;;;32.08;18.83;;;;;;;;;;10082444;28;20048;-63
2021/01/12 03:15:07;;;;;;;24.92;16.77;;;;;;;;;;10081724;28;20086;-62
2021/01/12 03:20:05;;;;;;;27.80;16.95;;;;;;;;;;10082695;28;20517;-62
2021/01/12 03:25:04;;;;;;;25.83;17.27;;;;;;;;;;10082557;28;20481;-63
2021/01/12 03:30:02;;;;;;;37.65;22.08;;;;;;;;;;10081170;28;20547;-63
2021/01/12 03:34:59;;;;;;;42.78;23.42;;;;;;;;;;10082122;28;20039;-63
2021/01/12 03:39:57;;;;;;;35.03;18.60;;;;;;;;;;10080889;28;20081;-62
2021/01/12 03:44:55;;;;;;;49.05;23.70;;;;;;;;;;10081115;28;20105;-62
2021/01/12 03:49:52;;;;;;;20.13;13.82;;;;;;;;;;10080115;28;20066;-62
2021/01/12 03:54:50;;;;;;;21.48;13.32;;;;;;;;;;10081193;28;20047;-64
2021/01/12 03:59:47;;;;;;;26.08;16.73;;;;;;;;;;10080080;28;20074;-62
2021/01/12 04:04:46;;;;;;;24.10;15.77;;;;;;;;;;10079686;28;20504;-61
2021/01/12 04:09:43;;;;;;;24.77;15.70;;;;;;;;;;10079738;28;20459;-63
2021/01/12 04:14:40;;;;;;;24.90;16.00;;;;;;;;;;10079260;28;20043;-63
2021/01/12 04:19:37;;;;;;;21.08;16.85;;;;;;;;;;10079767;28;20505;-63
2021/01/12 04:24:36;;;;;;;24.63;17.25;;;;;;;;;;10079646;28;20477;-63
2021/01/12 04:29:33;;;;;;;23.30;16.58;;;;;;;;;;10078830;28;20078;-63
2021/01/12 04:34:30;;;;;;;22.45;16.33;;;;;;;;;;10078694;28;20059;-63
2021/01/12 04:39:28;;;;;;;22.48;17.05;;;;;;;;;;10078981;28;20075;-61
2021/01/12 04:44:26;;;;;;;26.73;18.92;;;;;;;;;;10078363;28;20082;-61
2021/01/12 04:49:23;;;;;;;27.58;19.60;;;;;;;;;;10078488;28;20478;-62
2021/01/12 04:54:20;;;;;;;23.92;16.65;;;;;;;;;;10078614;28;20516;-62
2021/01/12 04:59:24;;;;;;;22.45;17.35;;;;;;;;;;10078088;28;20078;-63
2021/01/12 05:04:22;;;;;;;23.80;17.33;;;;;;;;;;10077725;28;20074;-63
2021/01/12 05:09:20;;;;;;;25.63;19.02;;;;;;;;;;10077323;28;20063;-63
2021/01/12 05:14:18;;;;;;;22.15;15.93;;;;;;;;;;10077830;28;20449;-63
2021/01/12 05:19:18;;;;;;;20.55;16.40;;;;;;;;;;10077561;28;20532;-62
2021/01/12 05:24:18;;;;;;;21.35;14.93;;;;;;;;;;10076699;28;20090;-63
2021/01/12 05:29:15;;;;;;;22.20;16.48;;;;;;;;;;10077477;28;20043;-64
2021/01/12 05:34:13;;;;;;;30.20;19.98;;;;;;;;;;10076798;28;20051;-63
2021/01/12 05:39:15;;;;;;;19.23;14.57;;;;;;;;;;10076380;28;20078;-62
2021/01/12 05:44:15;;;;;;;28.40;21.20;;;;;;;;;;10076915;28;20074;-65
2021/01/12 05:49:12;;;;;;;23.42;17.10;;;;;;;;;;10076719;28;20102;-64
2021/01/12 05:54:10;;;;;;;23.70;17.08;;;;;;;;;;10076777;28;20163;-63
2021/01/12 05:59:15;;;;;;;28.23;18.40;;;;;;;;;;10076610;28;20107;-63
2021/01/12 06:04:14;;;;;;;22.05;17.55;;;;;;;;;;10076473;28;20066;-62
2021/01/12 06:09:12;;;;;;;31.25;23.10;;;;;;;;;;10076104;28;20060;-63
2021/01/12 06:14:10;;;;;;;25.65;18.17;;;;;;;;;;10077983;28;20078;-62
2021/01/12 06:19:12;;;;;;;25.40;18.23;;;;;;;;;;10083837;28;20082;-63
2021/01/12 06:24:11;;;;;;;27.13;20.13;;;;;;;;;;10083946;28;20086;-63
2021/01/12 06:29:08;;;;;;;31.83;22.45;;;;;;;;;;10083749;28;20067;-62
2021/01/12 06:34:05;;;;;;;28.65;21.33;;;;;;;;;;10082893;28;20047;-62
2021/01/12 06:39:03;;;;;;;31.27;21.67;;;;;;;;;;10083100;28;20445;-63
2021/01/12 06:44:12;;;;;;;28.88;20.75;;;;;;;;;;10079942;28;20075;-63
2021/01/12 06:49:11;;;;;;;40.03;26.50;;;;;;;;;;10079587;28;20074;-61
2021/01/12 06:54:12;;;;;;;30.05;20.05;;;;;;;;;;10079069;28;20079;-61
2021/01/12 06:59:14;;;;;;;34.60;24.13;;;;;;;;;;10080632;28;20086;-64
2021/01/12 07:04:20;;;;;;;23.75;17.92;;;;;;;;;;10082331;28;20161;-63
2021/01/12 07:09:19;;;;;;;28.83;21.20;;;;;;;;;;10082199;28;20078;-63
2021/01/12 07:14:25;;;;;;;30.80;19.83;;;;;;;;;;10081459;28;20283;-63
2021/01/12 07:19:24;;;;;;;42.35;29.55;;;;;;;;;;10082074;28;20078;-62
2021/01/12 07:24:23;;;;;;;38.90;29.20;;;;;;;;;;10081584;28;20413;-62
2021/01/12 07:29:20;;;;;;;34.20;24.55;;;;;;;;;;10081111;28;20082;-61
2021/01/12 07:34:18;;;;;;;29.85;21.80;;;;;;;;;;10081687;28;20086;-62
2021/01/12 07:39:15;;;;;;;37.70;25.98;;;;;;;;;;10080500;28;20488;-61
2021/01/12 07:44:17;;;;;;;36.95;23.33;;;;;;;;;;10081199;28;20071;-62
2021/01/12 07:49:15;;;;;;;38.72;27.38;;;;;;;;;;10081017;28;20078;-63
2021/01/12 07:54:22;;;;;;;36.85;26.48;;;;;;;;;;10080837;28;20070;-62
2021/01/12 07:59:20;;;;;;;36.88;27.35;;;;;;;;;;10080236;28;20468;-62
2021/01/12 08:04:17;;;;;;;37.65;26.13;;;;;;;;;;10080523;28;20466;-62
2021/01/12 08:09:20;;;;;;;38.95;25.10;;;;;;;;;;10079573;28;20417;-63
2021/01/12 08:14:30;;;;;;;32.63;22.77;;;;;;;;;;10079444;28;20078;-63
2021/01/12 08:19:27;;;;;;;44.08;28.58;;;;;;;;;;10079153;28;20097;-63
2021/01/12 08:24:26;;;;;;;37.67;25.23;;;;;;;;;;10079794;28;20145;-63
2021/01/12 08:29:24;;;;;;;47.60;29.55;;;;;;;;;;10079660;28;20055;-63
2021/01/12 08:34:25;;;;;;;35.88;24.25;;;;;;;;;;10079338;28;20509;-63
2021/01/12 08:39:23;;;;;;;32.70;22.08;;;;;;;;;;10077739;28;20075;-63
2021/01/12 08:44:20;;;;;;;44.83;28.90;;;;;;;;;;10078416;28;20047;-63
2021/01/12 08:49:17;;;;;;;37.88;25.80;;;;;;;;;;10078698;28;20079;-61
2021/01/12 08:54:16;;;;;;;43.42;28.88;;;;;;;;;;10077942;28;20082;-61
2021/01/12 08:59:13;;;;;;;74.63;52.50;;;;;;;;;;10078222;28;20486;-61
2021/01/12 09:04:11;;;;;;;45.30;30.10;;;;;;;;;;10078215;28;20054;-61
2021/01/12 09:09:13;;;;;;;65.22;50.75;;;;;;;;;;10077417;28;20106;-61
2021/01/12 09:14:11;;;;;;;92.90;68.10;;;;;;;;;;10077756;28;20083;-61
2021/01/12 09:19:13;;;;;;;59.88;39.72;;;;;;;;;;10077410;28;20094;-60
2021/01/12 09:24:16;;;;;;;36.45;27.42;;;;;;;;;;10077328;28;20440;-61
2021/01/12 09:29:14;;;;;;;68.10;47.75;;;;;;;;;;10076782;28;20110;-61
2021/01/12 09:34:13;;;;;;;48.67;35.85;;;;;;;;;;10076148;28;20074;-61
2021/01/12 09:39:12;;;;;;;37.88;27.83;;;;;;;;;;10076861;28;20085;-61
2021/01/12 09:44:09;;;;;;;36.97;26.08;;;;;;;;;;10075470;28;20106;-62
2021/01/12 09:49:07;;;;;;;34.65;22.45;;;;;;;;;;10076711;28;20445;-61
2021/01/12 09:54:05;;;;;;;30.30;22.92;;;;;;;;;;10076730;28;20058;-61
2021/01/12 09:59:02;;;;;;;66.68;43.78;;;;;;;;;;10075926;28;20083;-61
2021/01/12 10:04:00;;;;;;;42.47;27.70;;;;;;;;;;10076510;28;20078;-61
2021/01/12 10:08:58;;;;;;;52.10;31.55;;;;;;;;;;10076473;28;20055;-61
2021/01/12 10:13:56;;;;;;;40.92;27.58;;;;;;;;;;10075807;28;20058;-61
2021/01/12 10:18:53;;;;;;;42.72;26.30;;;;;;;;;;10076142;28;20466;-61
2021/01/12 10:23:51;;;;;;;129.82;67.55;;;;;;;;;;10079475;28;20520;-60
2021/01/12 10:28:51;;;;;;;100.93;54.05;;;;;;;;;;10076344;28;20046;-60
2021/01/12 10:33:48;;;;;;;159.55;83.30;;;;;;;;;;10075825;28;20058;-60
2021/01/12 10:38:47;;;;;;;154.30;78.18;;;;;;;;;;10075711;28;20075;-60
2021/01/12 10:43:45;;;;;;;170.45;87.57;;;;;;;;;;10074856;28;20062;-60
2021/01/12 10:48:43;;;;;;;276.88;123.20;;;;;;;;;;10078344;28;20040;-59
2021/01/12 10:53:41;;;;;;;139.32;66.68;;;;;;;;;;10076077;28;20051;-60
2021/01/12 10:58:38;;;;;;;104.28;49.00;;;;;;;;;;10075442;28;20509;-60
2021/01/12 11:03:35;;;;;;;209.73;99.05;;;;;;;;;;10081835;28;20082;-60
2021/01/12 11:08:34;;;;;;;120.22;55.53;;;;;;;;;;10082017;28;20048;-60
2021/01/12 11:13:32;;;;;;;53.70;32.92;;;;;;;;;;10081404;28;20075;-61
2021/01/12 11:18:30;;;;;;;43.13;31.05;;;;;;;;;;10082860;28;20090;-61
2021/01/12 11:23:28;;;;;;;39.65;30.42;;;;;;;;;;10080888;28;20501;-59
2021/01/12 11:28:26;;;;;;;85.07;53.45;;;;;;;;;;10081539;28;20120;-61
2021/01/12 11:33:23;;;;;;;87.00;55.45;;;;;;;;;;10081134;28;20082;-61
2021/01/12 11:38:24;;;;;;;128.13;74.30;;;;;;;;;;10081110;28;20082;-61
2021/01/12 11:43:21;;;;;;;160.77;78.78;;;;;;;;;;10080328;28;20086;-61
2021/01/12 11:48:20;;;;;;;131.23;69.55;;;;;;;;;;10080721;28;20519;-60
2021/01/12 11:53:17;;;;;;;100.40;62.70;;;;;;;;;;10080704;28;20075;-61
2021/01/12 11:58:16;;;;;;;53.58;33.72;;;;;;;;;;10080063;28;20094;-61
2021/01/12 12:03:13;;;;;;;65.97;47.60;;;;;;;;;;10080237;28;20078;-63
2021/01/12 12:08:12;;;;;;;82.97;51.80;;;;;;;;;;10079230;28;20047;-63
2021/01/12 12:13:09;;;;;;;60.78;42.33;;;;;;;;;;10078535;28;20055;-63
2021/01/12 12:30:29;;;;;;;51.63;35.75;;;;;;;;;;10083957;28;20071;-63
2021/01/12 12:35:26;;;;;;;63.75;44.33;;;;;;;;;;10079740;28;20520;-63
2021/01/12 12:40:24;;;;;;;57.42;40.45;;;;;;;;;;10079090;28;20071;-63
2021/01/12 12:45:21;;;;;;;71.95;53.17;;;;;;;;;;10079057;28;20401;-62
2021/01/12 12:50:19;;;;;;;54.35;35.75;;;;;;;;;;10078278;28;20062;-62
2021/01/12 12:55:17;;;;;;;54.90;37.13;;;;;;;;;;10078781;28;20081;-62
2021/01/12 13:00:16;;;;;;;56.50;39.30;;;;;;;;;;10078060;28;20075;-62
2021/01/12 13:05:14;;;;;;;48.55;34.03;;;;;;;;;;10078482;28;20081;-63
2021/01/12 13:10:13;;;;;;;59.03;42.63;;;;;;;;;;10077086;28;20062;-61
2021/01/12 13:15:11;;;;;;;76.43;50.90;;;;;;;;;;10077224;28;20054;-62
2021/01/12 13:20:09;;;;;;;108.53;72.50;;;;;;;;;;10077028;28;20086;-61
2021/01/12 13:25:07;;;;;;;69.25;42.92;;;;;;;;;;10077509;28;20067;-62
2021/01/12 13:30:07;;;;;;;64.55;44.28;;;;;;;;;;10077545;28;20087;-62
2021/01/12 13:35:05;;;;;;;58.17;41.63;;;;;;;;;;10076805;28;20082;-62
2021/01/12 13:40:02;;;;;;;48.55;33.42;;;;;;;;;;10076605;28;20551;-62
2021/01/12 13:44:59;;;;;;;43.83;33.15;;;;;;;;;;10074685;28;20051;-62
2021/01/12 13:49:58;;;;;;;47.97;34.67;;;;;;;;;;10076316;28;20051;-63
2021/01/12 13:54:56;;;;;;;47.33;36.83;;;;;;;;;;10076386;28;20043;-62
2021/01/12 13:59:54;;;;;;;78.45;54.22;;;;;;;;;;10076307;28;20086;-63
2021/01/12 14:04:52;;;;;;;396.13;212.95;;;;;;;;;;10076722;28;20082;-63
2021/01/12 14:09:51;;;;;;;133.00;75.22;;;;;;;;;;10075593;28;20548;-63
2021/01/12 14:14:49;;;;;;;117.13;72.20;;;;;;;;;;10075715;28;20445;-63
2021/01/12 14:19:47;;;;;;;125.65;71.63;;;;;;;;;;10075833;28;20505;-63
2021/01/12 14:24:44;;;;;;;134.65;72.25;;;;;;;;;;10075925;28;20082;-63
2021/01/12 14:29:43;;;;;;;53.05;38.85;;;;;;;;;;10076397;28;20074;-63
2021/01/12 14:34:41;;;;;;;76.95;47.38;;;;;;;;;;10076886;28;20050;-63
2021/01/12 14:39:53;;;;;;;106.13;63.80;;;;;;;;;;10083530;28;20501;-63
2021/01/12 14:44:51;;;;;;;105.30;64.60;;;;;;;;;;10083551;28;20039;-63
2021/01/12 14:49:49;;;;;;;84.15;51.70;;;;;;;;;;10083346;28;20493;-63
2021/01/12 14:54:46;;;;;;;167.43;104.72;;;;;;;;;;10082582;28;20078;-63
2021/01/12 14:59:50;;;;;;;51.00;36.35;;;;;;;;;;10083081;28;20506;-63
2021/01/12 15:04:48;;;;;;;128.20;100.88;;;;;;;;;;10082401;28;20527;-63
2021/01/12 15:09:46;;;;;;;51.72;39.72;;;;;;;;;;10082072;28;20086;-62
2021/01/12 15:14:43;;;;;;;60.85;47.15;;;;;;;;;;10081709;28;20071;-62
2021/01/12 15:19:40;;;;;;;65.20;48.05;;;;;;;;;;10082159;28;20078;-62
2021/01/12 15:24:38;;;;;;;132.55;88.05;;;;;;;;;;10081915;28;20527;-62
2021/01/12 15:29:36;;;;;;;92.43;58.53;;;;;;;;;;10082022;28;20413;-62
2021/01/12 15:34:33;;;;;;;99.90;62.13;;;;;;;;;;10080982;28;20058;-63
2021/01/12 15:39:30;;;;;;;52.28;32.15;;;;;;;;;;10081473;28;20078;-63
2021/01/12 15:44:29;;;;;;;208.45;50.30;;;;;;;;;;10080792;28;20490;-61
2021/01/12 15:49:27;;;;;;;350.00;63.85;;;;;;;;;;10080729;28;20044;-62
2021/01/12 15:54:24;;;;;;;178.70;95.25;;;;;;;;;;10080976;28;20469;-61
2021/01/12 15:59:22;;;;;;;92.95;43.65;;;;;;;;;;10080687;28;20563;-62
2021/01/12 16:04:20;;;;;;;67.10;39.00;;;;;;;;;;10080301;28;20074;-62
2021/01/12 16:09:18;;;;;;;88.45;49.58;;;;;;;;;;10078978;28;20083;-62
2021/01/12 16:14:15;;;;;;;125.95;77.28;;;;;;;;;;10079106;28;20055;-62
2021/01/12 16:19:14;;;;;;;107.20;68.40;;;;;;;;;;10061801;28;20110;-62
2021/01/12 16:24:15;;;;;;;97.80;58.67;;;;;;;;;;10061870;28;20051;-63
2021/01/12 16:29:16;;;;;;;87.97;43.67;;;;;;;;;;10089330;28;20112;-59
2021/01/12 16:34:15;;;;;;;113.50;66.35;;;;;;;;;;10113899;28;20098;-62
2021/01/12 16:39:15;;;;;;;181.00;64.10;;;;;;;;;;10100660;28;20081;-63
2021/01/12 16:44:20;;;;;;;112.68;64.38;;;;;;;;;;10099906;28;20054;-63
2021/01/12 16:49:38;;;;;;;132.15;77.90;;;;;;;;;;10104792;28;20473;-63
2021/01/12 16:54:39;;;;;;;179.82;94.28;;;;;;;;;;10100538;28;20043;-62
2021/01/12 16:59:52;;;;;;;80.78;49.03;;;;;;;;;;10100111;28;20104;-62
2021/01/12 17:04:49;;;;;;;211.88;46.55;;;;;;;;;;10117702;28;20067;-63
2021/01/12 17:09:48;;;;;;;52.92;32.15;;;;;;;;;;10116362;28;20099;-62
2021/01/12 17:14:46;;;;;;;64.03;39.38;;;;;;;;;;10099434;28;20526;-62
2021/01/12 17:19:50;;;;;;;135.20;76.20;;;;;;;;;;10099324;28;20082;-63
2021/01/12 17:24:53;;;;;;;212.55;115.57;;;;;;;;;;10099262;28;20059;-63
2021/01/12 17:29:56;;;;;;;268.85;94.32;;;;;;;;;;10099026;28;20081;-63
2021/01/12 17:35:03;;;;;;;283.08;80.03;;;;;;;;;;10098785;28;20055;-62
2021/01/12 17:40:04;;;;;;;141.70;76.43;;;;;;;;;;10116274;28;20101;-63
2021/01/12 17:45:40;;;;;;;79.70;46.17;;;;;;;;;;9959087;29;20076;-63
2021/01/12 17:50:38;;;;;;;147.30;58.95;;;;;;;;;;10069581;28;20413;-62
2021/01/12 17:55:39;;;;;;;117.90;62.08;;;;;;;;;;10098161;28;20054;-63
2021/01/12 18:00:42;;;;;;;155.98;57.85;;;;;;;;;;10098350;28;20059;-63
2021/01/12 18:05:46;;;;;;;93.45;51.58;;;;;;;;;;10097992;28;20054;-62
2021/01/12 18:11:07;;;;;;;87.10;50.90;;;;;;;;;;10102874;28;20074;-62
2021/01/12 18:16:06;;;;;;;52.47;28.65;;;;;;;;;;10123535;28;20065;-62
2021/01/12 18:21:06;;;;;;;75.03;41.97;;;;;;;;;;10106161;28;20059;-62
2021/01/12 18:26:13;;;;;;;89.10;48.97;;;;;;;;;;10105953;28;20051;-62
2021/01/12 18:31:19;;;;;;;163.95;50.22;;;;;;;;;;10105517;28;20054;-63
2021/01/12 18:36:17;;;;;;;84.25;47.55;;;;;;;;;;10105348;28;20422;-62
2021/01/12 18:41:18;;;;;;;73.32;45.17;;;;;;;;;;10105384;28;20047;-62
2021/01/12 18:46:36;;;;;;;128.23;75.40;;;;;;;;;;10124482;28;20055;-62
2021/01/12 18:51:36;;;;;;;196.43;48.58;;;;;;;;;;10104766;28;20051;-62
2021/01/12 18:56:35;;;;;;;163.15;48.38;;;;;;;;;;10122830;28;20429;-62
2021/01/12 19:01:33;;;;;;;75.85;42.53;;;;;;;;;;10104050;28;20050;-63
2021/01/12 19:06:31;;;;;;;76.60;36.53;;;;;;;;;;10122025;28;20498;-62
2021/01/12 19:11:28;;;;;;;101.25;43.03;;;;;;;;;;10121818;28;20097;-62
2021/01/12 19:16:30;;;;;;;98.68;46.60;;;;;;;;;;10121690;28;20093;-62
2021/01/12 19:21:27;;;;;;;175.32;106.03;;;;;;;;;;10120695;28;20086;-61
2021/01/12 19:26:26;;;;;;;185.25;94.28;;;;;;;;;;10121714;28;20496;-63
2021/01/12 19:31:26;;;;;;;153.35;71.75;;;;;;;;;;10120747;28;20058;-62
2021/01/12 19:36:33;;;;;;;88.93;39.53;;;;;;;;;;10121470;28;20070;-62
2021/01/12 19:41:31;;;;;;;95.18;50.28;;;;;;;;;;10121056;28;20078;-61
2021/01/12 19:46:29;;;;;;;129.93;68.43;;;;;;;;;;10119289;28;20046;-62
2021/01/12 19:51:26;;;;;;;102.22;53.00;;;;;;;;;;10120395;28;20050;-61
2021/01/12 19:56:25;;;;;;;89.22;45.65;;;;;;;;;;10120275;28;20081;-61
2021/01/12 20:01:22;;;;;;;69.55;38.75;;;;;;;;;;10119917;28;20089;-62
2021/01/12 20:06:20;;;;;;;67.60;42.38;;;;;;;;;;10120102;28;20066;-61
2021/01/12 20:11:18;;;;;;;206.90;53.22;;;;;;;;;;10119895;28;20074;-62
2021/01/12 20:16:16;;;;;;;96.55;54.90;;;;;;;;;;10119168;28;20051;-62
2021/01/12 20:21:17;;;;;;;255.50;54.25;;;;;;;;;;10117437;28;20094;-62
2021/01/12 20:26:16;;;;;;;67.03;36.97;;;;;;;;;;10115929;28;20070;-61
2021/01/12 20:31:14;;;;;;;128.57;68.05;;;;;;;;;;10118143;28;20444;-61
2021/01/12 20:36:13;;;;;;;78.07;44.15;;;;;;;;;;10118367;28;20055;-62
2021/01/12 20:41:11;;;;;;;95.32;52.67;;;;;;;;;;10118900;28;20082;-61
2021/01/12 20:46:10;;;;;;;81.15;30.08;;;;;;;;;;10118659;28;20058;-61
2021/01/12 20:51:08;;;;;;;53.28;31.20;;;;;;;;;;10118133;28;20108;-62
2021/01/12 20:56:06;;;;;;;67.82;37.80;;;;;;;;;;10117639;28;20054;-62
2021/01/12 21:01:04;;;;;;;40.42;24.65;;;;;;;;;;10118094;28;20082;-62
2021/01/12 21:06:01;;;;;;;44.22;27.38;;;;;;;;;;10117324;28;20181;-60
2021/01/12 21:11:03;;;;;;;27.75;19.88;;;;;;;;;;10116890;28;20555;-62
2021/01/12 21:16:01;;;;;;;39.90;22.60;;;;;;;;;;10117152;28;20078;-63
2021/01/12 21:20:59;;;;;;;44.80;28.60;;;;;;;;;;10117144;28;20100;-63
2021/01/12 21:25:56;;;;;;;43.60;28.15;;;;;;;;;;10116432;28;20505;-63
2021/01/12 21:30:53;;;;;;;49.78;33.53;;;;;;;;;;10117093;28;20070;-63
2021/01/12 21:35:52;;;;;;;43.10;25.35;;;;;;;;;;10117137;28;20054;-63
2021/01/12 21:40:49;;;;;;;54.38;31.33;;;;;;;;;;10115974;28;20489;-61
2021/01/12 21:45:46;;;;;;;83.63;45.92;;;;;;;;;;10116356;28;20097;-62
2021/01/12 21:50:44;;;;;;;102.10;51.92;;;;;;;;;;10116042;28;20519;-62
2021/01/12 21:55:42;;;;;;;59.97;36.15;;;;;;;;;;10116811;28;20416;-62
2021/01/12 22:00:39;;;;;;;33.08;20.60;;;;;;;;;;10116375;28;20081;-63
2021/01/12 22:05:37;;;;;;;56.13;34.35;;;;;;;;;;10116808;28;20412;-62
2021/01/12 22:10:34;;;;;;;41.97;30.90;;;;;;;;;;10115017;28;20086;-63
2021/01/12 22:15:33;;;;;;;33.05;20.75;;;;;;;;;;10116249;28;20142;-62
2021/01/12 22:20:30;;;;;;;25.77;18.20;;;;;;;;;;10115498;28;20521;-62
2021/01/12 22:25:29;;;;;;;110.10;48.95;;;;;;;;;;10115099;28;20047;-62
2021/01/12 22:30:26;;;;;;;56.33;32.35;;;;;;;;;;10115693;28;20497;-62
2021/01/12 22:35:24;;;;;;;49.85;25.67;;;;;;;;;;10115256;28;20070;-62
2021/01/12 22:40:22;;;;;;;38.88;24.50;;;;;;;;;;10115315;28;20086;-63
2021/01/12 22:45:21;;;;;;;95.47;45.35;;;;;;;;;;10097525;28;20054;-63
2021/01/12 22:50:18;;;;;;;76.65;35.05;;;;;;;;;;10115232;28;20046;-63
2021/01/12 22:55:17;;;;;;;37.08;20.75;;;;;;;;;;10116083;28;20042;-61
2021/01/12 23:00:18;;;;;;;55.00;25.23;;;;;;;;;;10121358;28;20089;-63
2021/01/12 23:05:16;;;;;;;69.13;26.67;;;;;;;;;;10104918;28;20059;-63
2021/01/12 23:10:15;;;;;;;54.28;22.70;;;;;;;;;;10121015;28;20054;-63
2021/01/12 23:15:14;;;;;;;99.30;26.55;;;;;;;;;;10121513;28;20085;-63
2021/01/12 23:20:12;;;;;;;77.43;19.60;;;;;;;;;;10121717;28;20089;-63
2021/01/12 23:25:10;;;;;;;50.25;19.65;;;;;;;;;;10121674;28;20071;-63
2021/01/12 23:30:09;;;;;;;43.17;19.80;;;;;;;;;;10121727;28;20086;-63
2021/01/12 23:35:09;;;;;;;27.92;17.77;;;;;;;;;;10121098;28;20051;-62
2021/01/12 23:40:07;;;;;;;36.90;20.08;;;;;;;;;;10121122;28;20083;-62
2021/01/12 23:45:05;;;;;;;32.90;19.25;;;;;;;;;;10102806;28;20046;-62
2021/01/12 23:50:03;;;;;;;28.92;16.92;;;;;;;;;;10120752;28;20058;-62
2021/01/12 23:55:02;;;;;;;27.60;16.73;;;;;;;;;;10120809;28;20077;-62
2021/01/12 23:59:59;;;;;;;40.08;22.55;;;;;;;;;;10120696;28;20085;-63
